TimeCST,TemperatureF,Dew PointF,Humidity,Sea Level PressureIn,VisibilityMPH,Wind Direction,Wind SpeedMPH,Gust SpeedMPH,PrecipitationIn,Events,Conditions,WindDirDegrees,DateUTC
12:55 AM,41.2,34.3,77,30.07,10.0,Calm,Calm,-,N/A,,Clear,0,2011-12-29 06:55:00
1:55 AM,37.9,32.0,79,30.06,10.0,WNW,3.5,-,N/A,,Clear,290,2011-12-29 07:55:00
2:55 AM,36.7,32.0,83,30.06,10.0,NNW,6.9,-,N/A,,Clear,330,2011-12-29 08:55:00
3:55 AM,39.4,31.6,74,30.04,10.0,NNW,3.5,-,N/A,,Clear,330,2011-12-29 09:55:00
4:55 AM,35.8,31.5,84,30.05,10.0,NNW,5.8,-,N/A,,Clear,340,2011-12-29 10:55:00
5:55 AM,35.1,30.6,84,30.04,10.0,NNW,6.9,-,N/A,,Clear,340,2011-12-29 11:55:00
6:55 AM,37.8,31.1,77,30.05,10.0,Calm,Calm,-,N/A,,Clear,0,2011-12-29 12:55:00
7:55 AM,36.3,31.3,82,30.06,10.0,NNW,4.6,-,N/A,,Clear,330,2011-12-29 13:55:00
8:55 AM,43.7,35.4,73,30.07,10.0,NNW,5.8,-,N/A,,Clear,330,2011-12-29 14:55:00
9:28 AM,50.0,37.4,62,30.07,10.0,NNW,3.5,-,N/A,,Clear,340,2011-12-29 15:28:00
9:55 AM,54.3,38.3,55,30.09,10.0,Calm,Calm,-,N/A,,Clear,0,2011-12-29 15:55:00
10:55 AM,61.9,34.3,36,30.08,10.0,SW,5.8,-,N/A,,Clear,230,2011-12-29 16:55:00
11:55 AM,64.8,32.9,30,30.04,10.0,SW,6.9,-,N/A,,Clear,230,2011-12-29 17:55:00
12:55 PM,67.8,33.1,28,29.99,10.0,SW,9.2,-,N/A,,Clear,220,2011-12-29 18:55:00
1:55 PM,69.4,30.9,24,29.96,10.0,SSW,5.8,-,N/A,,Clear,200,2011-12-29 19:55:00
2:55 PM,70.0,33.1,26,29.94,10.0,SSW,8.1,-,N/A,,Clear,200,2011-12-29 20:55:00
3:55 PM,70.7,34.3,26,29.93,10.0,SSW,4.6,-,N/A,,Clear,210,2011-12-29 21:55:00
4:55 PM,68.9,34.3,28,29.92,10.0,South,9.2,-,N/A,,Clear,180,2011-12-29 22:55:00
5:55 PM,63.3,34.7,34,29.91,10.0,SSE,3.5,-,N/A,,Clear,160,2011-12-29 23:55:00
6:55 PM,60.4,35.1,39,29.91,10.0,South,4.6,-,N/A,,Clear,170,2011-12-30 00:55:00
7:55 PM,57.6,35.8,44,29.92,10.0,SSW,8.1,-,N/A,,Clear,200,2011-12-30 01:55:00
8:55 PM,57.0,35.1,44,29.92,10.0,SW,5.8,-,N/A,,Clear,230,2011-12-30 02:55:00
9:55 PM,52.2,35.6,53,29.93,10.0,Calm,Calm,-,N/A,,Clear,0,2011-12-30 03:55:00
10:55 PM,50.0,35.1,57,29.93,10.0,WSW,4.6,-,N/A,,Clear,250,2011-12-30 04:55:00
11:55 PM,55.6,34.5,45,29.92,10.0,SSW,6.9,-,N/A,,Clear,210,2011-12-30 05:55:00